createdAt,value
2018-11-10T00:00:50.763Z,63.80
2018-11-10T00:03:20.271Z,53.17
2018-11-10T00:05:49.749Z,57.60
2018-11-10T00:08:19.465Z,55.25
2018-11-10T00:10:48.966Z,61.42
2018-11-10T00:13:18.496Z,54.33
2018-11-10T00:15:47.986Z,68.33
2018-11-10T00:18:17.539Z,63.17
2018-11-10T00:20:47.001Z,53.08
2018-11-10T00:23:16.662Z,57.50
2018-11-10T00:25:46.248Z,57.65
2018-11-10T00:28:15.772Z,64.35
2018-11-10T00:30:45.316Z,62.75
2018-11-10T00:33:14.834Z,58.85
2018-11-10T00:35:44.335Z,65.45
2018-11-10T00:38:13.823Z,65.72
2018-11-10T00:40:43.389Z,52.40
2018-11-10T00:43:12.930Z,62.83
2018-11-10T00:45:42.460Z,49.30
2018-11-10T00:48:12.200Z,51.73
2018-11-10T00:50:41.773Z,67.53
2018-11-10T00:53:11.363Z,62.67
2018-11-10T00:55:40.896Z,66.28
2018-11-10T00:58:10.469Z,60.50
2018-11-10T01:00:40.057Z,67.42
2018-11-10T01:03:09.605Z,62.75
2018-11-10T01:05:39.331Z,66.62
2018-11-10T01:08:08.848Z,59.60
2018-11-10T01:10:38.273Z,60.48
2018-11-10T01:13:07.996Z,53.05
2018-11-10T01:15:37.568Z,57.35
2018-11-10T01:18:07.252Z,53.48
2018-11-10T01:20:36.725Z,64.90
2018-11-10T01:23:06.501Z,67.97
2018-11-10T01:25:36.065Z,57.58
2018-11-10T01:28:05.630Z,61.75
2018-11-10T01:30:35.250Z,49.00
2018-11-10T01:33:04.785Z,59.85
2018-11-10T01:35:34.239Z,63.13
2018-11-10T01:38:03.853Z,70.67
2018-11-10T01:40:33.333Z,60.85
2018-11-10T01:43:02.795Z,65.67
2018-11-10T01:45:32.304Z,60.35
2018-11-10T01:48:01.808Z,65.90
2018-11-10T01:50:31.304Z,61.30
2018-11-10T01:53:00.881Z,64.70
2018-11-10T01:55:30.397Z,56.23
2018-11-10T01:57:59.938Z,66.17
2018-11-10T02:00:29.498Z,62.35
2018-11-10T02:02:59.077Z,55.65
2018-11-10T02:05:28.601Z,45.85
2018-11-10T02:07:58.192Z,51.87
2018-11-10T02:10:27.664Z,56.95
2018-11-10T02:12:57.199Z,50.73
2018-11-10T02:15:26.812Z,59.73
2018-11-10T02:17:57.117Z,51.60
2018-11-10T02:20:26.779Z,40.28
2018-11-10T02:22:56.319Z,60.67
2018-11-10T02:25:25.899Z,54.80
2018-11-10T02:27:56.104Z,45.10
2018-11-10T02:30:25.636Z,59.60
2018-11-10T02:32:55.083Z,51.30
2018-11-10T02:35:24.543Z,53.57
2018-11-10T02:37:54.118Z,50.75
2018-11-10T02:40:23.620Z,40.90
2018-11-10T02:42:53.256Z,51.77
2018-11-10T02:45:22.723Z,55.52
2018-11-10T02:47:52.163Z,50.40
2018-11-10T02:50:21.760Z,46.30
2018-11-10T02:52:51.302Z,49.63
2018-11-10T02:55:20.720Z,47.98
2018-11-10T02:57:50.322Z,50.08
2018-11-10T03:00:19.892Z,40.07
2018-11-10T03:02:49.384Z,52.23
2018-11-10T03:05:19.115Z,49.18
2018-11-10T03:07:48.607Z,48.50
2018-11-10T03:10:18.145Z,50.58
2018-11-10T03:12:47.664Z,60.52
2018-11-10T03:15:17.216Z,49.85
2018-11-10T03:17:46.699Z,43.78
2018-11-10T03:20:16.453Z,44.90
2018-11-10T03:22:46.282Z,44.33
2018-11-10T03:25:15.821Z,46.53
2018-11-10T03:27:45.316Z,51.15
2018-11-10T03:30:14.903Z,43.45
2018-11-10T03:32:44.382Z,37.23
2018-11-10T03:35:13.936Z,45.10
2018-11-10T03:37:43.424Z,37.93
2018-11-10T03:40:13.417Z,49.08
2018-11-10T03:42:42.926Z,52.15
2018-11-10T03:45:13.244Z,36.83
2018-11-10T03:47:42.775Z,35.43
2018-11-10T03:50:13.414Z,47.13
2018-11-10T03:52:43.159Z,38.88
2018-11-10T03:55:12.742Z,43.20
2018-11-10T03:57:42.330Z,42.10
2018-11-10T04:00:14.052Z,48.90
2018-11-10T04:02:44.727Z,47.83
2018-11-10T04:05:14.781Z,37.75
2018-11-10T04:07:45.108Z,33.23
2018-11-10T04:10:15.371Z,34.83
2018-11-10T04:12:44.826Z,51.73
2018-11-10T04:15:14.300Z,37.63
2018-11-10T04:17:43.830Z,44.08
2018-11-10T04:20:13.364Z,42.60
2018-11-10T04:22:42.881Z,44.53
2018-11-10T04:25:12.527Z,50.80
2018-11-10T04:27:42.076Z,43.83
2018-11-10T04:30:12.149Z,37.23
2018-11-10T04:32:41.638Z,47.78
2018-11-10T04:35:11.164Z,42.90
2018-11-10T04:37:40.707Z,39.90
2018-11-10T04:40:10.971Z,28.42
2018-11-10T04:42:40.979Z,38.33
2018-11-10T04:45:11.727Z,39.73
2018-11-10T04:47:41.331Z,36.65
2018-11-10T04:50:11.971Z,39.78
2018-11-10T04:52:42.156Z,51.45
2018-11-10T04:55:12.642Z,42.90
2018-11-10T04:57:42.447Z,40.08
2018-11-10T05:00:14.218Z,48.23
2018-11-10T05:02:44.774Z,37.67
2018-11-10T05:05:14.308Z,35.52
2018-11-10T05:07:43.849Z,33.73
2018-11-10T05:10:13.412Z,35.70
2018-11-10T05:12:42.885Z,43.75
2018-11-10T05:15:13.412Z,34.65
2018-11-10T05:17:43.057Z,30.55
2018-11-10T05:20:12.589Z,38.13
2018-11-10T05:22:42.318Z,43.80
2018-11-10T05:25:11.976Z,39.20
2018-11-10T05:27:41.466Z,29.35
2018-11-10T05:30:11.553Z,34.10
2018-11-10T05:32:41.004Z,33.57
2018-11-10T05:35:10.538Z,33.23
2018-11-10T05:37:40.042Z,38.65
2018-11-10T05:40:10.804Z,41.83
2018-11-10T05:42:40.607Z,30.92
2018-11-10T05:45:10.472Z,33.70
2018-11-10T05:47:40.099Z,28.10
2018-11-10T05:50:10.041Z,35.92
2018-11-10T05:52:39.524Z,37.58
2018-11-10T05:55:09.180Z,43.33
2018-11-10T05:57:39.497Z,41.40
2018-11-10T06:00:13.515Z,40.40
2018-11-10T06:02:43.411Z,36.05
2018-11-10T06:05:13.333Z,30.57
2018-11-10T06:07:42.792Z,33.95
2018-11-10T06:10:12.935Z,35.43
2018-11-10T06:12:42.796Z,33.15
2018-11-10T06:15:12.306Z,32.50
2018-11-10T06:17:41.808Z,37.75
2018-11-10T06:20:12.897Z,31.23
2018-11-10T06:22:42.444Z,29.12
2018-11-10T06:25:12.547Z,39.10
2018-11-10T06:27:42.056Z,36.20
2018-11-10T06:30:12.450Z,34.03
2018-11-10T06:32:42.037Z,38.58
2018-11-10T06:35:11.814Z,32.35
2018-11-10T06:37:42.383Z,30.27
2018-11-10T06:40:13.511Z,34.98
2018-11-10T06:42:43.700Z,33.13
2018-11-10T06:45:13.153Z,38.03
2018-11-10T06:47:42.588Z,37.45
2018-11-10T06:50:12.561Z,42.95
2018-11-10T06:52:42.118Z,38.42
2018-11-10T06:55:12.021Z,35.05
2018-11-10T06:57:41.619Z,38.85
2018-11-10T07:00:15.217Z,40.47
2018-11-10T07:02:44.980Z,32.15
2018-11-10T07:05:14.540Z,30.03
2018-11-10T07:07:44.032Z,37.13
2018-11-10T07:10:13.527Z,46.23
2018-11-10T07:12:42.987Z,45.50
2018-11-10T07:15:12.492Z,33.05
2018-11-10T07:20:21.662Z,35.48
2018-11-10T07:22:51.249Z,35.70
2018-11-10T07:25:20.780Z,32.00
2018-11-10T07:27:50.322Z,41.13
2018-11-10T07:30:19.925Z,39.18
2018-11-10T07:32:49.395Z,32.70
2018-11-10T07:35:18.834Z,44.27
2018-11-10T07:37:48.251Z,30.52
2018-11-10T07:40:17.849Z,35.08
2018-11-10T07:42:47.351Z,34.40
2018-11-10T07:45:17.179Z,34.67
2018-11-10T07:47:46.939Z,30.70
2018-11-10T07:50:16.498Z,31.27
2018-11-10T07:52:46.119Z,37.20
2018-11-10T07:55:16.268Z,34.20
2018-11-10T07:57:45.706Z,33.23
2018-11-10T08:00:16.606Z,23.57
2018-11-10T08:02:46.061Z,25.92
2018-11-10T08:05:16.208Z,28.90
2018-11-10T08:07:45.795Z,32.40
2018-11-10T08:10:15.901Z,28.30
2018-11-10T08:12:45.405Z,29.23
2018-11-10T08:15:16.167Z,22.62
2018-11-10T08:17:45.703Z,26.20
2018-11-10T08:20:15.369Z,28.75
2018-11-10T08:22:44.941Z,30.20
2018-11-10T08:25:15.237Z,22.85
2018-11-10T08:27:44.778Z,22.80
2018-11-10T08:30:15.107Z,25.60
2018-11-10T08:32:44.767Z,22.00
2018-11-10T08:35:14.951Z,23.97
2018-11-10T08:37:44.518Z,23.77
2018-11-10T08:40:15.418Z,29.85
2018-11-10T08:42:44.968Z,28.87
2018-11-10T08:45:15.300Z,22.30
2018-11-10T08:47:45.210Z,25.82
2018-11-10T08:50:16.438Z,21.35
2018-11-10T08:52:45.922Z,21.75
2018-11-10T08:55:15.363Z,21.02
2018-11-10T08:57:44.978Z,20.80
2018-11-10T09:00:14.408Z,20.57
2018-11-10T09:02:43.908Z,20.05
2018-11-10T09:05:13.659Z,22.13
2018-11-10T09:07:43.332Z,25.02
2018-11-10T09:10:15.085Z,14.05
2018-11-10T09:12:44.731Z,23.90
2018-11-10T09:15:15.496Z,24.15
2018-11-10T09:17:45.547Z,20.07
2018-11-10T09:20:16.422Z,23.27
2018-11-10T09:22:46.101Z,18.32
2018-11-10T09:25:17.106Z,18.35
2018-11-10T09:27:46.822Z,17.63
2018-11-10T09:30:18.307Z,20.62
2018-11-10T09:32:47.777Z,17.73
2018-11-10T09:35:17.313Z,18.00
2018-11-10T09:37:46.876Z,18.40
2018-11-10T09:40:17.241Z,20.37
2018-11-10T09:42:46.955Z,14.87
2018-11-10T09:45:17.662Z,15.00
2018-11-10T09:47:47.172Z,15.88
2018-11-10T09:50:19.964Z,17.70
2018-11-10T09:52:49.565Z,16.82
2018-11-10T09:55:19.480Z,18.20
2018-11-10T09:57:49.195Z,14.18
2018-11-10T10:00:21.000Z,16.70
2018-11-10T10:02:51.091Z,16.12
2018-11-10T10:05:20.566Z,18.73
2018-11-10T10:07:50.123Z,13.68
2018-11-10T10:10:19.923Z,19.02
2018-11-10T10:12:49.460Z,10.82
2018-11-10T10:15:19.714Z,15.18
2018-11-10T10:17:49.367Z,12.60
2018-11-10T10:20:20.869Z,13.20
2018-11-10T10:22:51.245Z,11.88
2018-11-10T10:25:21.188Z,12.40
2018-11-10T10:27:51.323Z,14.93
2018-11-10T10:30:23.246Z,12.13
2018-11-10T10:32:52.993Z,15.55
2018-11-10T10:35:22.848Z,11.12
2018-11-10T10:37:52.924Z,11.00
2018-11-10T10:40:23.665Z,9.78
2018-11-10T10:42:53.568Z,9.55
2018-11-10T10:45:24.601Z,11.83
2018-11-10T10:47:54.316Z,13.50
2018-11-10T10:50:24.744Z,11.95
2018-11-10T10:52:54.468Z,11.65
2018-11-10T10:55:24.378Z,12.30
2018-11-10T10:57:54.364Z,16.10
2018-11-10T11:00:29.152Z,11.43
2018-11-10T11:03:02.980Z,11.40
2018-11-10T11:05:37.740Z,8.70
2018-11-10T11:08:07.595Z,11.43
2018-11-10T11:10:37.660Z,11.00
2018-11-10T11:13:07.475Z,8.55
2018-11-10T11:15:37.512Z,7.97
2018-11-10T11:18:07.522Z,10.35
2018-11-10T11:20:37.650Z,5.62
2018-11-10T11:23:07.295Z,10.30
2018-11-10T11:25:36.807Z,13.32
2018-11-10T11:28:06.557Z,10.60
2018-11-10T11:30:36.142Z,7.90
2018-11-10T11:33:06.259Z,11.15
2018-11-10T11:35:35.849Z,9.23
2018-11-10T11:38:05.553Z,7.27
2018-11-10T11:40:35.111Z,7.92
2018-11-10T11:43:05.457Z,7.27
2018-11-10T11:45:35.095Z,13.43
2018-11-10T11:48:04.757Z,9.45
2018-11-10T11:50:34.325Z,7.37
2018-11-10T11:53:04.494Z,8.68
2018-11-10T11:55:34.170Z,7.80
2018-11-10T11:58:03.837Z,9.38
2018-11-10T12:00:33.304Z,7.70
2018-11-10T12:03:02.900Z,8.35
2018-11-10T12:05:32.335Z,11.45
2018-11-10T12:08:01.953Z,6.47
2018-11-10T12:10:31.573Z,9.55
2018-11-10T12:13:01.120Z,7.47
2018-11-10T12:15:30.972Z,10.57
2018-11-10T12:18:00.412Z,8.30
2018-11-10T12:20:29.963Z,6.85
2018-11-10T12:22:59.429Z,9.53
2018-11-10T12:25:29.097Z,7.35
2018-11-10T12:27:58.629Z,11.33
2018-11-10T12:30:28.855Z,8.33
2018-11-10T12:32:58.368Z,10.20
2018-11-10T12:35:27.977Z,6.75
2018-11-10T12:37:57.811Z,8.53
2018-11-10T12:40:27.315Z,8.45
2018-11-10T12:42:56.854Z,8.78
2018-11-10T12:45:26.361Z,7.83
2018-11-10T12:47:57.262Z,7.28
2018-11-10T12:50:26.731Z,6.90
2018-11-10T12:52:56.244Z,8.48
2018-11-10T12:55:25.783Z,10.55
2018-11-10T12:57:56.870Z,6.37
2018-11-10T13:00:26.281Z,10.55
2018-11-10T13:02:55.747Z,9.13
2018-11-10T13:05:25.529Z,7.65
2018-11-10T13:07:56.178Z,8.70
2018-11-10T13:10:25.671Z,10.53
2018-11-10T13:12:55.256Z,7.62
2018-11-10T13:15:24.747Z,7.37
2018-11-10T13:17:56.671Z,5.58
2018-11-10T13:20:26.419Z,7.55
2018-11-10T13:22:55.903Z,3.85
2018-11-10T13:25:25.455Z,9.53
2018-11-10T13:27:55.392Z,7.23
2018-11-10T13:30:24.846Z,7.75
2018-11-10T13:32:54.348Z,5.07
2018-11-10T13:35:23.986Z,8.48
2018-11-10T13:37:53.476Z,8.15
2018-11-10T13:40:22.926Z,9.80
2018-11-10T13:42:52.384Z,6.55
2018-11-10T13:45:22.293Z,10.48
2018-11-10T13:47:51.729Z,9.38
2018-11-10T13:50:21.296Z,3.87
2018-11-10T13:52:51.131Z,5.22
2018-11-10T13:55:20.513Z,7.65
2018-11-10T13:57:49.994Z,7.67
2018-11-10T14:00:19.896Z,8.93
2018-11-10T14:02:49.429Z,7.78
2018-11-10T14:05:18.856Z,11.10
2018-11-10T14:07:48.284Z,5.00
2018-11-10T14:10:17.840Z,8.45
2018-11-10T14:12:47.540Z,7.70
2018-11-10T14:15:17.025Z,7.37
2018-11-10T14:17:46.528Z,8.10
2018-11-10T14:20:16.729Z,10.27
2018-11-10T14:22:46.987Z,10.10
2018-11-10T14:25:17.099Z,7.03
2018-11-10T14:27:46.835Z,8.43
2018-11-10T14:30:17.504Z,9.63
2018-11-10T14:32:47.322Z,9.63
2018-11-10T14:35:16.808Z,6.20
2018-11-10T14:37:46.279Z,9.63
2018-11-10T14:40:17.194Z,12.05
2018-11-10T14:42:49.042Z,7.27
2018-11-10T14:45:19.699Z,10.38
2018-11-10T14:47:49.393Z,8.07
2018-11-10T14:50:19.991Z,7.75
2018-11-10T14:52:49.589Z,10.03
2018-11-10T14:55:18.925Z,6.03
2018-11-10T14:57:50.800Z,7.85
2018-11-10T15:00:21.828Z,12.05
2018-11-10T15:02:51.413Z,14.07
2018-11-10T15:05:21.308Z,8.35
2018-11-10T15:07:50.862Z,8.83
2018-11-10T15:10:20.840Z,6.95
2018-11-10T15:12:50.604Z,9.73
2018-11-10T15:15:20.500Z,9.00
2018-11-10T15:17:50.092Z,8.10
2018-11-10T15:20:20.293Z,11.47
2018-11-10T15:22:49.885Z,11.90
2018-11-10T15:25:20.999Z,8.68
2018-11-10T15:27:50.426Z,12.50
2018-11-10T15:30:21.149Z,13.98
2018-11-10T15:32:51.015Z,10.75
2018-11-10T15:35:21.921Z,17.02
2018-11-10T15:37:52.481Z,10.05
2018-11-10T15:40:22.567Z,10.07
2018-11-10T15:42:52.127Z,13.50
2018-11-10T15:45:22.827Z,11.90
2018-11-10T15:47:53.174Z,14.95
2018-11-10T15:50:22.819Z,12.65
2018-11-10T15:52:52.419Z,12.93
2018-11-10T15:55:22.697Z,19.50
2018-11-10T15:57:55.104Z,17.05
2018-11-10T16:00:25.604Z,10.88
2018-11-10T16:02:55.212Z,12.50
2018-11-10T16:05:25.104Z,17.83
2018-11-10T16:07:57.573Z,12.60
2018-11-10T16:10:27.622Z,15.05
2018-11-10T16:12:57.240Z,13.90
2018-11-10T16:15:27.245Z,15.50
2018-11-10T16:17:58.800Z,11.95
2018-11-10T16:20:29.454Z,18.48
2018-11-10T16:22:59.661Z,13.55
2018-11-10T16:25:36.444Z,12.70
2018-11-10T16:28:06.198Z,18.25
2018-11-10T16:30:36.210Z,15.95
2018-11-10T16:33:06.934Z,15.75
2018-11-10T16:35:37.285Z,13.08
2018-11-10T16:38:07.124Z,18.75
2018-11-10T16:40:36.817Z,16.30
2018-11-10T16:43:06.961Z,14.83
2018-11-10T16:45:36.874Z,17.80
2018-11-10T16:48:08.342Z,19.45
2018-11-10T16:50:38.238Z,17.42
2018-11-10T16:53:07.935Z,15.78
2018-11-10T16:55:37.945Z,16.70
2018-11-10T16:58:08.088Z,15.03
2018-11-10T17:00:38.088Z,16.75
2018-11-10T17:03:07.706Z,15.13
2018-11-10T17:05:37.355Z,15.50
2018-11-10T17:08:07.122Z,21.30
2018-11-10T17:10:36.753Z,18.40
2018-11-10T17:13:07.705Z,12.35
2018-11-10T17:15:40.100Z,21.27
2018-11-10T17:18:09.828Z,26.47
2018-11-10T17:20:40.190Z,14.40
2018-11-10T17:23:11.277Z,15.00
2018-11-10T17:25:41.106Z,15.28
2018-11-10T17:28:11.741Z,16.62
2018-11-10T17:33:51.467Z,22.50
2018-11-10T17:36:21.192Z,24.30
2018-11-10T17:38:51.299Z,21.12
2018-11-10T17:41:21.355Z,22.42
2018-11-10T17:43:53.468Z,16.60
2018-11-10T17:46:23.846Z,24.47
2018-11-10T17:48:53.749Z,17.17
2018-11-10T17:51:23.478Z,22.93
2018-11-10T17:53:53.327Z,16.42
2018-11-10T17:56:23.821Z,16.50
2018-11-10T17:58:54.554Z,20.92
2018-11-10T18:01:24.463Z,20.08
2018-11-10T18:03:54.369Z,19.35
2018-11-10T18:06:24.385Z,20.80
2018-11-10T18:08:54.125Z,25.40
2018-11-10T18:11:24.328Z,28.25
2018-11-10T18:13:54.283Z,22.02
2018-11-10T18:16:24.202Z,22.15
2018-11-10T18:18:54.125Z,24.75
2018-11-10T18:21:24.238Z,21.70
2018-11-10T18:23:54.185Z,20.70
2018-11-10T18:26:24.439Z,26.62
2018-11-10T18:28:54.520Z,20.57
2018-11-10T18:31:24.717Z,21.20
2018-11-10T18:33:55.752Z,18.10
2018-11-10T18:36:30.638Z,26.05
2018-11-10T18:39:05.248Z,20.90
2018-11-10T18:41:42.857Z,18.48
2018-11-10T18:44:12.819Z,22.48
2018-11-10T18:46:42.648Z,22.70
2018-11-10T18:49:24.455Z,18.75
2018-11-10T18:51:54.273Z,20.37
2018-11-10T18:54:30.118Z,13.97
2018-11-10T18:56:59.679Z,27.93
2018-11-10T18:59:29.278Z,21.37
2018-11-10T19:01:58.955Z,18.90
2018-11-10T19:04:28.723Z,31.60
2018-11-10T19:06:58.268Z,20.08
2018-11-10T19:09:27.915Z,18.80
2018-11-10T19:11:57.470Z,17.32
2018-11-10T19:14:27.038Z,17.52
2018-11-10T19:16:58.631Z,21.55
2018-11-10T19:19:28.443Z,18.30
2018-11-10T19:21:58.048Z,17.75
2018-11-10T19:24:27.684Z,19.30
2018-11-10T19:26:57.277Z,19.17
2018-11-10T19:29:27.063Z,25.00
2018-11-10T19:31:56.858Z,17.67
2018-11-10T19:34:26.548Z,15.13
2018-11-10T19:36:56.146Z,22.62
2018-11-10T19:39:25.711Z,17.98
2018-11-10T19:41:55.205Z,20.20
2018-11-10T19:44:24.750Z,16.60
2018-11-10T19:46:54.409Z,15.07
2018-11-10T19:49:23.993Z,18.02
2018-11-10T19:51:53.840Z,15.83
2018-11-10T19:54:23.286Z,19.02
2018-11-10T19:56:52.982Z,22.77
2018-11-10T19:59:22.507Z,17.98
2018-11-10T20:01:52.206Z,16.45
2018-11-10T20:04:21.938Z,15.53
2018-11-10T20:06:51.509Z,24.03
2018-11-10T20:09:21.205Z,19.02
2018-11-10T20:11:50.740Z,20.07
2018-11-10T20:14:20.663Z,18.67
2018-11-10T20:16:50.113Z,15.03
2018-11-10T20:19:19.754Z,13.93
2018-11-10T20:21:49.384Z,17.85
2018-11-10T20:24:19.315Z,11.35
2018-11-10T20:26:48.971Z,14.50
2018-11-10T20:29:18.501Z,12.25
2018-11-10T20:31:48.139Z,12.97
2018-11-10T20:34:17.704Z,16.55
2018-11-10T20:36:47.449Z,17.15
2018-11-10T20:39:17.082Z,12.60
2018-11-10T20:41:46.556Z,18.23
2018-11-10T20:44:16.133Z,14.23
2018-11-10T20:46:45.822Z,15.20
2018-11-10T20:49:15.507Z,16.60
2018-11-10T20:51:45.274Z,12.98
2018-11-10T20:54:14.891Z,16.15
2018-11-10T20:56:44.703Z,10.98
2018-11-10T20:59:14.384Z,12.58
2018-11-10T21:01:43.925Z,11.83
2018-11-10T21:04:13.800Z,12.50
2018-11-10T21:06:43.475Z,13.38
2018-11-10T21:09:14.018Z,15.05
2018-11-10T21:11:43.705Z,9.33
2018-11-10T21:14:13.375Z,14.78
2018-11-10T21:16:43.084Z,9.60
2018-11-10T21:19:12.731Z,8.05
2018-11-10T21:21:42.284Z,11.12
2018-11-10T21:24:11.939Z,11.55
2018-11-10T21:26:41.442Z,8.30
2018-11-10T21:29:11.021Z,11.20
2018-11-10T21:31:40.596Z,10.95
2018-11-10T21:34:10.392Z,7.87
2018-11-10T21:36:39.917Z,11.38
2018-11-10T21:39:11.495Z,11.57
2018-11-10T21:41:41.085Z,10.28
2018-11-10T21:44:10.623Z,8.45
2018-11-10T21:46:40.269Z,11.83
2018-11-10T21:49:09.937Z,7.50
2018-11-10T21:51:39.456Z,11.25
2018-11-10T21:54:09.023Z,7.75
2018-11-10T21:56:38.625Z,11.00
2018-11-10T21:59:08.167Z,12.00
2018-11-10T22:01:37.890Z,6.00
2018-11-10T22:04:07.526Z,6.90
2018-11-10T22:06:37.088Z,10.43
2018-11-10T22:09:10.971Z,10.95
2018-11-10T22:11:41.813Z,13.95
2018-11-10T22:14:11.333Z,10.43
2018-11-10T22:16:40.911Z,9.10
2018-11-10T22:19:10.640Z,8.98
2018-11-10T22:21:40.484Z,14.23
2018-11-10T22:24:09.973Z,10.90
2018-11-10T22:26:39.463Z,10.23
2018-11-10T22:29:09.015Z,8.03
2018-11-10T22:31:38.567Z,11.75
2018-11-10T22:34:08.199Z,7.60
2018-11-10T22:36:37.700Z,8.25
2018-11-10T22:39:12.540Z,11.07
2018-11-10T22:41:42.072Z,10.08
2018-11-10T22:44:11.568Z,8.50
2018-11-10T22:46:41.070Z,10.72
2018-11-10T22:49:10.536Z,7.30
2018-11-10T22:51:40.256Z,6.05
2018-11-10T22:54:09.745Z,10.18
2018-11-10T22:56:39.246Z,8.70
2018-11-10T22:59:08.936Z,7.42
2018-11-10T23:01:38.463Z,10.30
2018-11-10T23:04:08.149Z,6.90
2018-11-10T23:06:37.639Z,9.68
2018-11-10T23:09:09.603Z,8.10
2018-11-10T23:11:39.129Z,7.40
2018-11-10T23:14:08.662Z,11.15
2018-11-10T23:16:38.249Z,7.33
2018-11-10T23:19:07.880Z,5.60
2018-11-10T23:21:37.388Z,9.90
2018-11-10T23:24:06.960Z,6.60
2018-11-10T23:26:36.536Z,6.80
2018-11-10T23:29:06.255Z,9.60
2018-11-10T23:31:35.739Z,6.95
2018-11-10T23:34:05.542Z,9.78
2018-11-10T23:36:35.107Z,9.03
2018-11-10T23:39:07.063Z,7.72
2018-11-10T23:41:36.614Z,9.20
2018-11-10T23:44:06.294Z,9.07
2018-11-10T23:46:35.874Z,7.10
2018-11-10T23:49:05.574Z,10.20
2018-11-10T23:51:35.253Z,5.75
2018-11-10T23:54:04.832Z,8.78
2018-11-10T23:56:34.321Z,9.40
2018-11-10T23:59:03.851Z,6.35
